Portada
METAR-TAF:

METAR-TAF

Aeropuertos :

Valencia, Venezuela

Aeropuerto Internacional Arturo Michelena

latitud: 10-10N, longitud: 067-56W, altitud: 430 m

Observación

El informe se hizo hace 3 horas y 0 minutos, a las 23:00 UTC
Viento 5 kt del norte
Temperatura 27°C
Humedad 54%
Presión 1013 hPa
Visibilidad 10 km o más
Nubes dispersas a una altura de 1600 ft

METAR: SVVA 272300Z 36005KT 9999 SCT016 27/17 Q1013

Hora: 22:00 (02:00 UTC)

Pronóstico

El informe se hizo hace 3 horas y 30 minutos, a las 22:30 UTC
Pronóstico válido del 28 a las 00 UTC al 29 a las 00 UTC
Viento 5 kt del este-sureste
Visibilidad 10 km o más
Cielo nuboso a una altura de 1600 ft
Temporalmente
del 28 a las 03 UTC al 28 a las 06 UTC
Viento 3 kt del sur-suroeste
Visibilidad 10 km o más
Nubes dispersas a una altura de 1600 ft

TAF: SVVA 272230Z 2800/2900 11005KT 9999 BKN016 TEMPO 2803/2806 18004KT 21003KT 9999 SCT016 TX33/19 TN22/11Z

Observaciones y pronósticos meteorológicos de más de 4000 aeropuertos (mensajes METAR y TAF).

Los puntos amarillos y rojos representan las estaciones disponibles.

Ponga el ratón en el punto deseado para ver el nombre de la estación.

Haga clic para ver las observaciones y los pronósticos meteorológicos.

Para cambiar el mapa : haga clic en los botones verdes con una cruz de color negro para hacer un zoom, en el botón verde con un guión para alejar o en las flechas verdes para mapas adyacentes.


METAR-TAF: